Time;durP1;ratioP1;P1;durP2;ratioP2;P2;SDS_P1;SDS_P2;PMS_P1;PMS_P2;Temp;Humidity;BMP_temperature;BMP_pressure;BME280_temperature;BME280_humidity;BME280_pressure;Samples;Min_cycle;Max_cycle;Signal;HPM_P1;HPM_P2
2021/04/27 00:01:51;;;;;;;19.42;12.03;;;;;;;8.75;48.80;101217.16;1718864;83;26232;-62
2021/04/27 00:04:29;;;;;;;20.15;12.07;;;;;;;8.77;49.07;101219.75;1700202;83;27543;-61
2021/04/27 00:07:03;;;;;;;21.42;11.60;;;;;;;8.80;48.96;101205.25;1700465;82;26486;-61
2021/04/27 00:09:32;;;;;;;22.48;12.23;;;;;;;8.82;48.84;101197.45;1704371;84;25771;-60
2021/04/27 00:12:11;;;;;;;25.37;14.43;;;;;;;8.82;48.96;101198.80;1723754;82;34989;-60
2021/04/27 00:14:42;;;;;;;26.33;14.10;;;;;;;8.83;49.33;101196.98;1731954;82;25764;-60
2021/04/27 00:17:10;;;;;;;34.43;14.25;;;;;;;8.79;49.39;101199.51;1793205;78;27518;-61
2021/04/27 00:19:41;;;;;;;33.23;14.10;;;;;;;8.77;49.62;101196.45;1793837;79;25747;-59
2021/04/27 00:22:09;;;;;;;27.35;14.70;;;;;;;8.79;49.56;101188.78;1810288;79;25705;-59
2021/04/27 00:24:44;;;;;;;28.83;12.90;;;;;;;8.80;49.68;101186.47;1810379;79;25775;-63
2021/04/27 00:27:21;;;;;;;23.65;12.70;;;;;;;8.79;50.18;101178.05;1810158;78;25847;-60
2021/04/27 00:29:50;;;;;;;29.67;14.50;;;;;;;8.79;50.92;101179.39;1810539;77;27621;-59
2021/04/27 00:32:28;;;;;;;24.35;14.63;;;;;;;8.74;52.10;101175.20;1810379;79;26163;-62
2021/04/27 00:35:07;;;;;;;24.02;13.72;;;;;;;8.73;53.03;101178.89;1885535;76;25687;-61
2021/04/27 00:37:43;;;;;;;19.45;10.98;;;;;;;8.65;54.46;101185.78;1856631;77;25738;-60
2021/04/27 00:40:17;;;;;;;16.73;8.63;;;;;;;8.58;53.09;101180.88;1856558;77;28013;-60
2021/04/27 00:42:48;;;;;;;24.65;10.05;;;;;;;8.53;52.10;101175.48;1856853;77;25808;-60
2021/04/27 00:45:25;;;;;;;12.80;8.23;;;;;;;8.44;51.69;101168.45;1855273;77;25722;-62
2021/04/27 00:48:01;;;;;;;13.00;7.55;;;;;;;8.51;51.84;101173.39;1856601;77;25311;-60
2021/04/27 00:50:33;;;;;;;9.28;6.35;;;;;;;8.50;51.72;101170.33;1855412;76;25711;-60
2021/04/27 00:53:06;;;;;;;10.10;6.60;;;;;;;8.47;51.83;101176.78;1854130;77;28509;-64
2021/04/27 00:55:48;;;;;;;10.35;6.80;;;;;;;8.52;51.78;101163.03;1843708;76;25592;-61
2021/04/27 00:58:22;;;;;;;9.18;5.83;;;;;;;8.49;51.70;101172.64;1813790;78;25670;-62
2021/04/27 01:00:51;;;;;;;8.68;5.65;;;;;;;8.50;51.53;101171.20;1839036;76;27508;-57
2021/04/27 01:03:21;;;;;;;8.73;5.35;;;;;;;8.53;51.55;101177.66;1847865;77;26199;-57
2021/04/27 01:05:49;;;;;;;8.75;6.08;;;;;;;8.55;51.71;101170.37;1761491;80;25656;-57
2021/04/27 01:08:28;;;;;;;12.73;6.45;;;;;;;8.60;51.76;101175.39;1759623;81;25663;-57
2021/04/27 01:11:41;;;;;;;10.72;6.22;;;;;;;8.60;51.77;101170.91;1814107;79;26074;-57
2021/04/27 01:14:41;;;;;;;10.78;6.25;;;;;;;8.58;51.71;101173.30;1813312;79;27481;-58
2021/04/27 01:17:16;;;;;;;13.40;7.05;;;;;;;8.56;51.87;101170.74;1814858;77;25657;-58
2021/04/27 01:20:11;;;;;;;10.25;6.17;;;;;;;8.56;52.38;101175.27;1814061;79;25673;-58
2021/04/27 01:23:04;;;;;;;12.43;8.23;;;;;;;8.55;52.63;101167.69;1776938;79;25751;-58
2021/04/27 01:25:53;;;;;;;16.55;8.30;;;;;;;8.55;53.20;101172.20;1803394;79;25489;-58
2021/04/27 01:28:22;;;;;;;22.32;11.88;;;;;;;8.52;54.17;101170.58;1764817;78;26633;-58
2021/04/27 01:30:50;;;;;;;22.82;11.83;;;;;;;8.48;55.29;101174.94;1803370;79;25503;-57
2021/04/27 01:33:23;;;;;;;22.80;10.88;;;;;;;8.44;55.42;101171.13;1803460;78;25664;-58
2021/04/27 01:35:52;;;;;;;20.62;10.82;;;;;;;8.43;55.94;101165.39;1803542;79;25598;-58
2021/04/27 01:38:22;;;;;;;16.50;10.43;;;;;;;8.35;56.01;101158.40;1803426;78;26112;-57
2021/04/27 01:40:53;;;;;;;15.13;9.90;;;;;;;8.32;58.57;101157.27;1804143;79;27592;-57
2021/04/27 01:43:23;;;;;;;16.82;10.60;;;;;;;8.23;60.20;101161.50;1781942;80;25702;-58
2021/04/27 01:45:57;;;;;;;15.85;9.73;;;;;;;8.16;58.64;101156.19;1753515;80;25752;-57
2021/04/27 01:48:26;;;;;;;13.62;8.80;;;;;;;8.14;59.08;101152.28;1781733;79;25610;-58
2021/04/27 01:50:55;;;;;;;16.75;9.88;;;;;;;8.13;60.31;101154.59;1803804;77;26103;-58
2021/04/27 01:53:44;;;;;;;14.33;9.23;;;;;;;8.08;60.93;101154.08;1768122;79;27603;-59
2021/04/27 01:56:12;;;;;;;13.85;8.53;;;;;;;8.07;60.96;101151.02;1842960;77;25759;-58
2021/04/27 01:58:41;;;;;;;13.25;8.38;;;;;;;8.09;61.09;101154.45;1843063;77;25701;-58
2021/04/27 02:01:10;;;;;;;17.52;9.53;;;;;;;8.11;61.20;101159.70;1771787;80;25670;-58
2021/04/27 02:03:44;;;;;;;13.50;9.08;;;;;;;8.12;61.22;101155.55;1843240;77;25637;-58
2021/04/27 02:06:31;;;;;;;14.30;8.65;;;;;;;8.13;61.40;101158.61;1760188;80;28510;-58
2021/04/27 02:09:05;;;;;;;15.60;9.38;;;;;;;8.12;61.43;101161.41;1770267;81;25721;-58
2021/04/27 02:11:38;;;;;;;15.37;10.80;;;;;;;8.07;62.82;101157.72;1765033;81;25450;-58
2021/04/27 02:14:10;;;;;;;17.27;9.90;;;;;;;8.04;62.51;101158.43;1784665;80;25607;-58
2021/04/27 02:17:02;;;;;;;15.10;10.58;;;;;;;8.01;61.83;101154.16;1784981;80;26083;-58
2021/04/27 02:19:33;;;;;;;17.20;10.15;;;;;;;7.98;62.14;101157.05;1784927;80;27569;-57
2021/04/27 02:22:09;;;;;;;15.53;9.93;;;;;;;7.94;62.69;101155.07;1781030;80;25603;-58
2021/04/27 02:24:48;;;;;;;18.67;10.32;;;;;;;7.93;62.81;101153.35;1784280;80;25619;-57
2021/04/27 02:27:17;;;;;;;17.30;10.90;;;;;;;7.93;63.06;101157.87;1784987;79;25600;-58
2021/04/27 02:29:46;;;;;;;22.42;9.55;;;;;;;7.94;63.89;101144.81;1785009;79;25678;-58
2021/04/27 02:32:16;;;;;;;16.25;10.13;;;;;;;7.92;63.41;101146.28;1784564;80;27580;-58
2021/04/27 02:34:46;;;;;;;14.98;9.60;;;;;;;7.92;64.06;101157.48;1784740;79;26347;-58
2021/04/27 02:37:18;;;;;;;20.60;9.68;;;;;;;7.90;63.41;101165.61;1761106;80;25772;-58
2021/04/27 02:39:47;;;;;;;15.32;9.45;;;;;;;7.88;64.19;101153.30;1784852;80;25608;-57
2021/04/27 02:42:15;;;;;;;19.98;9.88;;;;;;;7.86;64.73;101150.75;1803948;79;25638;-58
2021/04/27 02:45:04;;;;;;;16.85;9.13;;;;;;;7.89;64.79;101157.20;1782419;80;27532;-58
2021/04/27 02:47:34;;;;;;;16.70;10.13;;;;;;;7.95;65.08;101154.57;1747556;81;26453;-58
2021/04/27 02:50:04;;;;;;;14.87;9.90;;;;;;;7.90;64.82;101146.86;1761475;81;25743;-57
2021/04/27 02:52:32;;;;;;;15.93;9.48;;;;;;;7.87;64.53;101146.23;1739778;82;25698;-58
2021/04/27 02:55:04;;;;;;;16.40;10.13;;;;;;;7.84;64.17;101147.31;1749451;81;26666;-58
2021/04/27 02:57:34;;;;;;;15.50;9.75;;;;;;;7.71;64.92;101139.29;1763444;81;26940;-58
2021/04/27 03:00:06;;;;;;;16.95;9.05;;;;;;;7.56;65.06;101136.36;1763377;81;25658;-58
2021/04/27 03:02:36;;;;;;;20.50;10.65;;;;;;;7.41;64.86;101133.78;1762940;81;25759;-58
2021/04/27 03:05:06;;;;;;;15.60;10.03;;;;;;;7.36;64.98;101135.44;1763439;80;25729;-58
2021/04/27 03:07:36;;;;;;;12.23;8.90;;;;;;;7.35;65.59;101131.04;1784758;79;25710;-58
2021/04/27 03:10:06;;;;;;;19.20;10.48;;;;;;;7.33;65.24;101126.77;1784729;79;28423;-58
2021/04/27 03:12:36;;;;;;;13.03;9.40;;;;;;;7.25;65.42;101127.78;1812864;78;25653;-58
2021/04/27 03:15:07;;;;;;;21.52;8.70;;;;;;;7.17;66.22;101133.19;1815826;78;25649;-58
2021/04/27 03:17:38;;;;;;;14.45;9.13;;;;;;;7.07;66.71;101133.92;1784514;78;26339;-58
2021/04/27 03:20:11;;;;;;;16.52;8.95;;;;;;;6.97;66.66;101129.20;1784969;80;25785;-57
2021/04/27 03:22:43;;;;;;;13.03;8.48;;;;;;;6.87;67.98;101127.61;1783907;79;27731;-58
2021/04/27 03:25:13;;;;;;;14.85;8.95;;;;;;;6.83;67.47;101126.12;1784782;80;25595;-58
2021/04/27 03:27:44;;;;;;;11.85;8.18;;;;;;;6.77;68.67;101118.48;1784510;80;25606;-58
2021/04/27 03:30:21;;;;;;;13.05;8.38;;;;;;;6.73;68.73;101119.17;1784199;80;25678;-57
2021/04/27 03:32:50;;;;;;;10.10;7.45;;;;;;;6.73;68.75;101124.52;1784736;80;25725;-58
2021/04/27 03:35:19;;;;;;;11.43;7.70;;;;;;;6.77;69.14;101122.50;1760501;80;27510;-58
2021/04/27 03:37:48;;;;;;;15.10;6.87;;;;;;;6.78;69.22;101124.70;1784723;80;25670;-58
2021/04/27 03:40:17;;;;;;;10.23;7.92;;;;;;;6.77;69.05;101126.51;1784934;80;25701;-57
2021/04/27 03:42:45;;;;;;;14.28;6.85;;;;;;;6.84;68.63;101133.65;1813406;78;25712;-58
2021/04/27 03:45:19;;;;;;;10.48;7.42;;;;;;;6.91;68.78;101131.42;1817102;78;26089;-57
2021/04/27 03:47:48;;;;;;;11.10;7.50;;;;;;;6.92;69.23;101127.80;1816686;77;27528;-58
2021/04/27 03:50:20;;;;;;;13.00;8.43;;;;;;;6.94;69.68;101120.53;1805469;78;25990;-58
2021/04/27 03:52:49;;;;;;;12.10;7.10;;;;;;;7.02;69.16;101120.86;1781539;79;25462;-58
2021/04/27 03:55:19;;;;;;;12.50;9.08;;;;;;;7.10;69.01;101118.52;1776280;80;26112;-58
2021/04/27 03:57:48;;;;;;;13.80;7.75;;;;;;;7.14;68.74;101118.66;1762499;81;25751;-58
2021/04/27 04:00:18;;;;;;;10.08;7.42;;;;;;;7.16;68.15;101114.56;1762288;80;27588;-58
2021/04/27 04:02:48;;;;;;;14.10;7.12;;;;;;;7.19;68.62;101113.88;1762331;79;25655;-58
2021/04/27 04:05:17;;;;;;;9.80;6.97;;;;;;;7.18;68.98;101096.10;1767792;79;25719;-58
2021/04/27 04:07:45;;;;;;;14.63;7.62;;;;;;;7.20;68.94;101094.64;1813933;79;25696;-58
2021/04/27 04:10:16;;;;;;;11.50;8.28;;;;;;;7.19;69.24;101092.47;1812382;77;25647;-59
2021/04/27 04:12:45;;;;;;;17.95;10.90;;;;;;;7.22;68.80;101093.22;1813353;78;27519;-58
2021/04/27 04:15:17;;;;;;;16.45;9.48;;;;;;;7.27;69.10;101095.92;1813153;79;25690;-59
2021/04/27 04:17:47;;;;;;;10.78;8.03;;;;;;;7.26;68.86;101092.03;1812966;79;25690;-59
2021/04/27 04:20:22;;;;;;;17.67;10.08;;;;;;;7.27;68.34;101084.38;1813377;79;25434;-59
2021/04/27 04:22:54;;;;;;;16.32;9.63;;;;;;;7.30;68.17;101087.70;1808213;79;27178;-59
2021/04/27 04:25:23;;;;;;;15.15;8.78;;;;;;;7.32;68.42;101091.13;1783924;79;28610;-59
2021/04/27 04:27:51;;;;;;;13.22;8.68;;;;;;;7.23;68.48;101094.45;1813289;78;25649;-59
2021/04/27 04:30:24;;;;;;;12.90;8.88;;;;;;;7.14;68.54;101098.59;1812401;79;25713;-58
2021/04/27 04:32:53;;;;;;;14.18;9.15;;;;;;;7.12;68.00;101097.87;1813324;79;26223;-59
2021/04/27 04:35:38;;;;;;;12.82;9.00;;;;;;;7.11;68.17;101106.86;1695259;83;25676;-58
2021/04/27 04:38:31;;;;;;;12.07;8.78;;;;;;;7.07;67.91;101101.33;1844055;76;25562;-56
2021/04/27 04:41:16;;;;;;;14.60;9.40;;;;;;;6.97;68.24;101106.46;1814104;78;25754;-56
2021/04/27 04:44:06;;;;;;;14.40;9.08;;;;;;;6.93;68.02;101105.44;1730791;81;28413;-58
2021/04/27 04:46:54;;;;;;;14.58;9.98;;;;;;;6.93;68.24;101106.78;1729932;82;25784;-57
2021/04/27 04:49:31;;;;;;;12.95;8.75;;;;;;;6.91;68.24;101108.69;1778253;79;25669;-57
2021/04/27 04:52:19;;;;;;;16.97;9.25;;;;;;;6.97;68.38;101110.47;1814032;78;25676;-57
2021/04/27 04:54:52;;;;;;;11.85;8.63;;;;;;;7.01;68.43;101112.45;1773287;79;27641;-57
2021/04/27 04:57:28;;;;;;;11.65;7.80;;;;;;;7.00;68.66;101112.92;1810106;79;27526;-56
2021/04/27 04:59:57;;;;;;;19.35;8.80;;;;;;;7.03;69.86;101119.91;1788067;79;25778;-57
2021/04/27 05:02:25;;;;;;;14.58;8.40;;;;;;;7.01;69.28;101117.81;1792991;78;25772;-57
2021/04/27 05:04:53;;;;;;;12.85;7.95;;;;;;;6.96;69.34;101114.57;1781925;79;25728;-57
2021/04/27 05:07:27;;;;;;;10.40;7.80;;;;;;;6.95;69.60;101108.88;1698270;78;25694;-57
2021/04/27 05:10:16;;;;;;;21.00;8.68;;;;;;;7.03;69.80;101118.56;1784697;78;27525;-58
2021/04/27 05:12:50;;;;;;;12.15;8.85;;;;;;;7.15;70.02;101117.70;1793268;79;25950;-58
2021/04/27 05:15:18;;;;;;;15.38;8.95;;;;;;;7.23;70.08;101112.30;1823253;77;26282;-57
2021/04/27 05:17:47;;;;;;;14.38;8.88;;;;;;;7.24;70.08;101112.68;1837289;77;25774;-57
2021/04/27 05:20:17;;;;;;;14.90;8.60;;;;;;;7.24;70.22;101116.23;1781887;80;26095;-57
2021/04/27 05:22:47;;;;;;;11.83;8.15;;;;;;;7.28;69.77;101116.88;1778568;79;28495;-57
2021/04/27 05:25:16;;;;;;;13.70;9.18;;;;;;;7.28;70.32;101119.55;1811887;78;25659;-57
2021/04/27 05:27:46;;;;;;;15.18;8.40;;;;;;;7.32;70.39;101111.66;1785460;79;25701;-57
2021/04/27 05:30:17;;;;;;;12.40;8.00;;;;;;;7.40;70.38;101116.00;1781872;80;25660;-57
2021/04/27 05:32:44;;;;;;;14.53;9.03;;;;;;;7.49;70.18;101107.33;1781861;80;25657;-58
2021/04/27 05:35:13;;;;;;;18.73;8.65;;;;;;;7.65;69.80;101115.63;1781797;80;27522;-57
2021/04/27 05:37:41;;;;;;;19.95;8.50;;;;;;;7.77;69.97;101109.88;1783604;78;25793;-57
2021/04/27 05:40:11;;;;;;;16.32;9.60;;;;;;;7.84;69.23;101110.66;1784521;78;25805;-57
2021/04/27 05:42:39;;;;;;;14.80;9.73;;;;;;;7.94;69.13;101112.67;1784523;80;26419;-57
2021/04/27 05:45:10;;;;;;;14.70;8.93;;;;;;;7.97;68.74;101116.02;1784602;80;25660;-57
2021/04/27 05:47:38;;;;;;;18.23;10.10;;;;;;;8.06;68.93;101118.99;1784381;78;28893;-58
2021/04/27 05:50:08;;;;;;;13.68;10.23;;;;;;;8.08;68.78;101111.67;1783184;79;25654;-57
2021/04/27 05:52:37;;;;;;;15.72;9.63;;;;;;;8.05;68.54;101107.40;1835794;77;25659;-57
2021/04/27 05:55:06;;;;;;;15.43;10.05;;;;;;;8.03;68.19;101109.33;1767695;81;26189;-57
2021/04/27 05:57:34;;;;;;;16.70;11.75;;;;;;;7.97;68.02;101111.12;1802330;79;26090;-57
2021/04/27 06:00:02;;;;;;;23.35;12.90;;;;;;;7.96;67.96;101103.58;1767547;81;27529;-57
2021/04/27 06:02:32;;;;;;;22.50;15.38;;;;;;;7.95;68.23;101100.99;1802073;79;25726;-57
2021/04/27 06:05:00;;;;;;;21.90;15.72;;;;;;;7.92;68.68;101107.44;1767664;81;25840;-57
2021/04/27 06:07:28;;;;;;;20.08;14.55;;;;;;;7.87;68.12;101106.05;1736869;82;25508;-58
2021/04/27 06:09:56;;;;;;;21.05;15.18;;;;;;;7.85;67.75;101100.81;1736848;82;25747;-57
2021/04/27 06:12:26;;;;;;;22.82;15.15;;;;;;;7.86;68.53;101095.83;1757436;81;27610;-57
2021/04/27 06:14:54;;;;;;;22.90;16.37;;;;;;;7.88;68.50;101107.30;1786604;78;25680;-57
2021/04/27 06:17:22;;;;;;;23.73;12.90;;;;;;;7.91;68.49;101096.84;1786630;79;25646;-57
2021/04/27 06:19:51;;;;;;;20.23;10.65;;;;;;;7.93;68.79;101101.11;1786582;78;25794;-57
2021/04/27 06:22:19;;;;;;;15.08;9.45;;;;;;;7.94;68.58;101097.94;1786593;80;25701;-58
2021/04/27 06:24:47;;;;;;;12.60;8.83;;;;;;;7.99;68.68;101096.64;1786520;78;27516;-57
2021/04/27 06:27:17;;;;;;;12.63;8.98;;;;;;;8.06;68.93;101097.55;1786411;79;25757;-57
2021/04/27 06:29:48;;;;;;;12.88;8.43;;;;;;;8.08;69.08;101092.45;1786310;79;25644;-57
2021/04/27 06:32:17;;;;;;;11.78;7.92;;;;;;;8.13;69.42;101102.83;1786522;80;26206;-58
2021/04/27 06:34:45;;;;;;;15.38;7.87;;;;;;;8.17;69.65;101096.77;1786607;78;25693;-57
2021/04/27 06:37:14;;;;;;;15.60;8.45;;;;;;;8.12;69.45;101096.59;1786399;79;27398;-57
2021/04/27 06:39:42;;;;;;;13.22;8.38;;;;;;;8.20;68.87;101097.39;1786521;78;26076;-57
2021/04/27 06:42:11;;;;;;;12.82;7.05;;;;;;;8.26;68.68;101097.42;1799596;79;25748;-57
2021/04/27 06:44:39;;;;;;;12.18;7.67;;;;;;;8.32;68.41;101099.64;1806776;79;25747;-57
2021/04/27 06:47:09;;;;;;;11.48;6.60;;;;;;;8.43;68.62;101103.73;1743381;82;25678;-58
2021/04/27 06:49:38;;;;;;;10.38;6.75;;;;;;;8.44;67.52;101102.77;1774298;80;27832;-57
2021/04/27 06:52:09;;;;;;;10.35;6.80;;;;;;;8.45;67.88;101101.80;1745210;81;26130;-57
2021/04/27 06:54:38;;;;;;;11.50;7.70;;;;;;;8.45;67.28;101101.80;1776182;80;25703;-57
2021/04/27 06:57:07;;;;;;;9.93;6.90;;;;;;;8.51;67.34;101103.20;1745217;81;25903;-57
2021/04/27 06:59:37;;;;;;;8.58;6.72;;;;;;;8.51;66.73;101096.97;1744565;82;25757;-57
2021/04/27 07:02:06;;;;;;;12.07;7.58;;;;;;;8.47;66.20;101104.39;1745233;82;27590;-57
2021/04/27 07:04:36;;;;;;;9.45;7.53;;;;;;;8.42;65.60;101102.02;1745107;82;25848;-58
2021/04/27 07:07:05;;;;;;;10.10;6.58;;;;;;;8.43;65.72;101098.84;1745270;81;25697;-57
2021/04/27 07:09:34;;;;;;;11.80;7.45;;;;;;;8.47;65.75;101093.66;1745161;82;25766;-57
2021/04/27 07:12:02;;;;;;;13.35;8.20;;;;;;;8.54;65.48;101096.25;1765978;80;26125;-57
2021/04/27 07:14:30;;;;;;;13.08;8.05;;;;;;;8.56;65.59;101097.00;1777750;80;28447;-57
2021/04/27 07:16:59;;;;;;;9.03;6.15;;;;;;;8.61;65.58;101096.16;1777404;80;26080;-58
2021/04/27 07:19:28;;;;;;;11.30;7.08;;;;;;;8.66;65.38;101102.52;1777624;80;25731;-57
2021/04/27 07:21:55;;;;;;;9.33;5.78;;;;;;;8.64;65.09;101112.98;1777533;80;25751;-58
2021/04/27 07:24:24;;;;;;;9.98;6.58;;;;;;;8.64;64.76;101110.31;1777648;80;26103;-57
2021/04/27 07:26:53;;;;;;;11.45;6.42;;;;;;;8.67;64.78;101114.11;1777778;80;27523;-57
2021/04/27 07:29:21;;;;;;;11.15;6.78;;;;;;;8.68;64.79;101112.64;1777595;80;26094;-57
2021/04/27 07:31:49;;;;;;;7.15;5.62;;;;;;;8.73;64.74;101113.17;1777710;80;25732;-57
2021/04/27 07:34:18;;;;;;;10.95;6.90;;;;;;;8.74;64.30;101118.87;1777742;80;25645;-57
2021/04/27 07:36:45;;;;;;;10.18;7.50;;;;;;;8.71;64.49;101120.94;1777558;80;25652;-57
2021/04/27 07:39:14;;;;;;;10.38;7.05;;;;;;;8.69;64.78;101118.88;1814881;78;27513;-57
2021/04/27 07:41:44;;;;;;;14.78;7.12;;;;;;;8.73;64.85;101123.03;1761263;79;25678;-57
2021/04/27 07:44:12;;;;;;;13.35;9.28;;;;;;;8.77;64.97;101123.18;1765436;81;25744;-57
2021/04/27 07:46:40;;;;;;;10.45;7.08;;;;;;;8.82;65.03;101126.86;1803362;79;25656;-57
2021/04/27 07:49:08;;;;;;;11.53;6.40;;;;;;;8.87;64.62;101129.56;1803327;79;25662;-57
2021/04/27 07:51:38;;;;;;;9.38;5.87;;;;;;;8.90;64.49;101121.77;1785941;79;29182;-57
2021/04/27 07:54:06;;;;;;;14.35;6.12;;;;;;;8.88;64.35;101128.56;1784281;80;26089;-57
2021/04/27 07:56:35;;;;;;;13.10;6.37;;;;;;;8.87;64.26;101122.86;1784319;80;25701;-58
2021/04/27 07:59:05;;;;;;;7.97;6.25;;;;;;;8.88;64.36;101129.06;1784228;79;25764;-58
2021/04/27 08:01:37;;;;;;;7.30;5.33;;;;;;;8.93;64.41;101125.06;1784231;79;25780;-58
2021/04/27 08:04:06;;;;;;;8.73;6.10;;;;;;;9.01;64.38;101119.09;1787863;78;27518;-58
2021/04/27 08:06:35;;;;;;;12.75;7.25;;;;;;;9.06;64.53;101119.61;1801562;78;25846;-58
2021/04/27 08:09:06;;;;;;;9.95;6.50;;;;;;;9.13;64.34;101120.48;1797143;78;25460;-57
2021/04/27 08:11:36;;;;;;;11.22;7.08;;;;;;;9.19;64.75;101119.52;1805573;78;25472;-58
2021/04/27 08:14:05;;;;;;;11.30;6.55;;;;;;;9.17;63.85;101124.65;1816376;78;25653;-58
2021/04/27 08:16:33;;;;;;;13.55;6.53;;;;;;;9.22;64.08;101119.77;1816528;78;26716;-58
2021/04/27 08:19:04;;;;;;;9.35;6.15;;;;;;;9.27;63.47;101114.04;1816419;78;25795;-58
2021/04/27 08:21:34;;;;;;;11.60;6.15;;;;;;;9.32;63.56;101115.39;1816355;78;25652;-58
2021/04/27 08:24:04;;;;;;;9.90;6.33;;;;;;;9.36;63.01;101107.48;1816177;78;25810;-58
2021/04/27 08:26:34;;;;;;;9.28;6.37;;;;;;;9.42;63.02;101110.65;1816288;78;25715;-58
2021/04/27 08:29:03;;;;;;;8.88;6.45;;;;;;;9.49;63.05;101101.13;1816345;78;27520;-58
2021/04/27 08:31:33;;;;;;;10.95;6.85;;;;;;;9.58;62.89;101104.43;1816197;78;25931;-58
2021/04/27 08:34:01;;;;;;;16.27;6.80;;;;;;;9.63;62.60;101110.31;1816466;78;25657;-58
2021/04/27 08:36:30;;;;;;;28.27;15.88;;;;;;;9.60;62.74;101115.91;1816370;78;25836;-58
2021/04/27 08:38:58;;;;;;;10.32;6.42;;;;;;;9.63;62.43;101122.40;1814487;78;26095;-58
2021/04/27 08:41:28;;;;;;;9.98;6.22;;;;;;;9.65;62.63;101120.42;1801968;79;27689;-58
2021/04/27 08:43:56;;;;;;;7.92;6.12;;;;;;;9.63;62.42;101125.08;1781198;79;25712;-58
2021/04/27 08:46:25;;;;;;;10.78;6.42;;;;;;;9.59;62.29;101126.29;1781141;80;25671;-58
2021/04/27 08:48:54;;;;;;;10.88;6.12;;;;;;;9.53;62.13;101116.88;1781080;80;25820;-58
2021/04/27 08:51:22;;;;;;;11.08;5.80;;;;;;;9.41;61.81;101121.89;1781242;80;25718;-58
2021/04/27 08:53:53;;;;;;;9.63;5.25;;;;;;;9.28;62.35;101121.97;1776884;80;27526;-57
2021/04/27 08:56:22;;;;;;;10.58;5.47;;;;;;;9.31;62.77;101118.21;1753309;80;26079;-57
2021/04/27 08:58:52;;;;;;;9.00;5.85;;;;;;;9.35;63.07;101121.87;1781212;80;25618;-58
2021/04/27 09:01:20;;;;;;;8.53;5.65;;;;;;;9.42;62.96;101123.57;1780915;79;25758;-57
2021/04/27 09:03:52;;;;;;;9.00;6.10;;;;;;;9.49;62.66;101123.95;1781024;80;25624;-57
2021/04/27 09:06:23;;;;;;;9.33;6.65;;;;;;;9.53;62.75;101114.20;1798736;79;27532;-58
2021/04/27 09:08:55;;;;;;;8.60;6.20;;;;;;;9.66;62.80;101119.45;1813022;78;25656;-58
2021/04/27 09:11:33;;;;;;;9.10;4.87;;;;;;;9.83;62.75;101122.62;1825631;77;25610;-58
2021/04/27 09:14:22;;;;;;;7.53;4.80;;;;;;;9.94;62.39;101121.27;1777111;80;25682;-58
2021/04/27 09:16:54;;;;;;;9.65;5.85;;;;;;;9.94;61.87;101119.09;1762125;79;25785;-58
2021/04/27 09:19:50;;;;;;;7.75;5.85;;;;;;;9.97;61.53;101124.20;1762096;80;27525;-58
2021/04/27 09:22:28;;;;;;;7.83;5.33;;;;;;;9.82;61.44;101119.56;1762121;79;25623;-58
2021/04/27 09:25:06;;;;;;;8.15;5.12;;;;;;;9.65;61.95;101120.92;1762074;80;26269;-57
2021/04/27 09:27:45;;;;;;;12.00;5.15;;;;;;;9.54;62.22;101122.63;1762219;79;25730;-58
2021/04/27 09:30:28;;;;;;;7.12;5.05;;;;;;;9.47;62.19;101124.09;1762206;79;25709;-58
2021/04/27 09:33:01;;;;;;;6.60;5.37;;;;;;;9.44;62.37;101128.84;1762447;79;27525;-58
2021/04/27 09:35:44;;;;;;;8.47;5.20;;;;;;;9.37;62.78;101126.62;1762387;79;25821;-58
2021/04/27 09:38:17;;;;;;;8.48;5.95;;;;;;;9.45;62.60;101129.22;1763167;79;25765;-58
2021/04/27 09:40:56;;;;;;;8.95;5.95;;;;;;;9.52;62.64;101126.41;1768411;81;25692;-58
2021/04/27 09:43:32;;;;;;;7.78;5.33;;;;;;;9.59;62.18;101124.11;1739518;81;25810;-57
2021/04/27 09:46:04;;;;;;;9.18;4.95;;;;;;;9.62;62.17;101127.41;1756403;81;27670;-57
2021/04/27 09:48:43;;;;;;;9.13;5.50;;;;;;;9.64;61.92;101124.58;1743074;81;25739;-57
2021/04/27 09:51:19;;;;;;;9.58;5.50;;;;;;;9.62;62.14;101123.38;1740387;81;25678;-57
2021/04/27 09:53:59;;;;;;;7.62;5.22;;;;;;;9.53;61.76;101126.78;1738333;81;25713;-57
2021/04/27 09:56:44;;;;;;;6.33;4.70;;;;;;;9.52;62.17;101125.06;1722240;82;25767;-57
2021/04/27 09:59:25;;;;;;;6.45;4.78;;;;;;;9.46;62.33;101127.75;1739671;81;28472;-57
2021/04/27 10:02:00;;;;;;;9.80;5.58;;;;;;;9.54;62.32;101119.94;1739253;81;25759;-57
2021/04/27 10:04:29;;;;;;;5.72;4.40;;;;;;;9.68;62.65;101126.91;1739462;81;26005;-57
2021/04/27 10:07:00;;;;;;;7.45;4.37;;;;;;;9.76;62.44;101128.13;1758090;80;25587;-57
2021/04/27 10:09:30;;;;;;;7.58;5.42;;;;;;;9.81;62.39;101125.94;1762990;80;26079;-57
2021/04/27 10:11:59;;;;;;;9.00;4.58;;;;;;;9.94;62.56;101127.16;1756216;81;28492;-57
2021/04/27 10:14:28;;;;;;;6.37;4.25;;;;;;;9.92;62.03;101133.13;1743658;81;26374;-57
2021/04/27 10:16:57;;;;;;;6.80;4.40;;;;;;;9.88;62.02;101129.84;1751897;81;25658;-58
2021/04/27 10:19:26;;;;;;;7.08;5.15;;;;;;;9.81;61.43;101135.34;1769997;81;25773;-57
2021/04/27 10:21:54;;;;;;;6.97;3.80;;;;;;;9.79;61.61;101130.58;1751908;81;25652;-57
2021/04/27 10:24:24;;;;;;;7.40;4.53;;;;;;;9.82;61.35;101137.02;1770028;81;28390;-58
2021/04/27 10:26:53;;;;;;;9.20;4.28;;;;;;;9.83;61.49;101144.98;1751746;81;25741;-57
2021/04/27 10:29:24;;;;;;;5.67;4.00;;;;;;;9.83;61.29;101140.08;1769997;81;25777;-58
2021/04/27 10:32:20;;;;;;;4.85;3.90;;;;;;;9.89;61.10;101142.77;1751937;81;25691;-58
2021/04/27 10:35:02;;;;;;;7.62;3.95;;;;;;;10.02;61.26;101134.11;1734662;81;25766;-58
2021/04/27 10:37:52;;;;;;;4.60;3.50;;;;;;;10.37;60.56;101132.20;1751841;81;28527;-58
2021/04/27 10:41:03;;;;;;;8.43;3.40;;;;;;;10.68;60.19;101134.58;1766342;81;25687;-58
2021/04/27 10:43:35;;;;;;;6.08;3.83;;;;;;;10.83;59.63;101139.17;1764967;79;26446;-59
2021/04/27 10:46:23;;;;;;;6.62;4.08;;;;;;;10.80;59.68;101141.64;1765088;81;26469;-58
2021/04/27 10:48:52;;;;;;;6.75;3.45;;;;;;;10.65;58.96;101137.04;1765213;79;25674;-58
2021/04/27 10:51:28;;;;;;;8.43;4.30;;;;;;;10.40;58.89;101144.93;1765184;81;27536;-58
2021/04/27 10:54:11;;;;;;;5.90;3.70;;;;;;;10.24;59.80;101149.83;1811578;78;26268;-58
2021/04/27 10:56:47;;;;;;;5.67;3.85;;;;;;;10.19;59.98;101146.16;1811598;79;25796;-57
2021/04/27 10:59:26;;;;;;;5.22;3.20;;;;;;;10.02;59.99;101151.58;1811572;79;25724;-58
2021/04/27 11:02:16;;;;;;;5.83;3.83;;;;;;;10.02;60.84;101148.39;1811522;79;25677;-58
2021/04/27 11:04:58;;;;;;;6.08;3.62;;;;;;;10.02;60.50;101147.55;1811693;79;27509;-58
2021/04/27 11:07:31;;;;;;;4.20;3.08;;;;;;;10.02;60.57;101150.23;1745149;82;25782;-58
2021/04/27 11:10:05;;;;;;;5.33;2.83;;;;;;;10.08;60.81;101148.39;1757479;81;25720;-57
2021/04/27 11:12:45;;;;;;;9.10;2.95;;;;;;;10.16;60.47;101153.16;1784455;80;26993;-58
2021/04/27 11:15:32;;;;;;;6.28;3.02;;;;;;;10.12;60.19;101154.37;1788924;80;25631;-58
2021/04/27 11:18:15;;;;;;;4.30;2.90;;;;;;;10.06;60.36;101150.84;1777182;80;28420;-58
2021/04/27 11:21:09;;;;;;;2.92;2.60;;;;;;;10.01;60.33;101148.52;1790088;80;25709;-58
2021/04/27 11:23:52;;;;;;;5.58;3.20;;;;;;;10.05;60.47;101152.66;1790271;80;25746;-58
2021/04/27 11:26:38;;;;;;;3.83;2.72;;;;;;;9.93;61.18;101159.03;1789999;80;25508;-58
2021/04/27 11:29:20;;;;;;;11.48;3.10;;;;;;;9.90;61.83;101165.98;1846543;77;27474;-58
2021/04/27 11:32:11;;;;;;;7.05;3.35;;;;;;;9.78;61.75;101171.84;1846690;77;27493;-58
2021/04/27 11:34:54;;;;;;;5.65;2.75;;;;;;;9.61;61.86;101169.14;1846432;77;25778;-58
2021/04/27 11:37:36;;;;;;;4.10;3.12;;;;;;;9.52;61.47;101166.20;1777684;80;25682;-58
2021/04/27 11:40:24;;;;;;;4.25;2.80;;;;;;;9.41;62.10;101170.23;1777336;80;27855;-57
2021/04/27 11:43:04;;;;;;;10.80;3.40;;;;;;;9.33;62.00;101170.81;1756302;81;25439;-57
2021/04/27 11:45:37;;;;;;;9.93;3.15;;;;;;;9.26;62.11;101169.58;1758807;81;27600;-57
2021/04/27 11:48:12;;;;;;;5.75;3.37;;;;;;;9.19;61.89;101171.87;1813408;79;25876;-57
2021/04/27 11:50:41;;;;;;;4.87;3.27;;;;;;;9.13;61.19;101178.18;1796776;79;25839;-57
2021/04/27 11:53:12;;;;;;;5.10;3.33;;;;;;;9.03;62.05;101177.54;1781290;80;25708;-57
2021/04/27 11:55:53;;;;;;;7.72;3.05;;;;;;;8.97;62.29;101185.19;1781286;80;26104;-57